createdAt,value
2022-12-11T00:07:36.905Z,2.48
2022-12-11T00:27:36.906Z,2.48
2022-12-11T00:47:36.907Z,2.46
2022-12-11T01:07:36.897Z,2.42
2022-12-11T01:27:36.889Z,2.49
2022-12-11T01:47:36.881Z,2.41
2022-12-11T02:07:36.879Z,2.47
2022-12-11T02:27:36.874Z,2.36
2022-12-11T02:47:36.856Z,2.21
2022-12-11T03:07:36.842Z,2.21
2022-12-11T03:27:36.846Z,2.15
2022-12-11T03:47:36.831Z,2.16
2022-12-11T04:07:36.837Z,2.18
2022-12-11T04:27:36.833Z,2.08
2022-12-11T04:47:36.809Z,2.13
2022-12-11T05:07:36.819Z,1.92
2022-12-11T05:27:36.818Z,2.00
2022-12-11T05:47:36.800Z,2.09
2022-12-11T06:07:36.791Z,2.08
2022-12-11T06:27:36.900Z,2.06
2022-12-11T06:47:36.799Z,2.09
2022-12-11T07:07:36.788Z,2.18
2022-12-11T07:27:36.768Z,2.16
2022-12-11T07:47:36.777Z,2.11
2022-12-11T08:07:36.763Z,2.05
2022-12-11T08:27:36.839Z,1.99
2022-12-11T08:47:36.753Z,2.01
2022-12-11T09:07:36.771Z,1.90
2022-12-11T09:27:36.763Z,1.93
2022-12-11T09:47:36.812Z,1.89
2022-12-11T10:07:36.727Z,1.80
2022-12-11T10:27:36.730Z,1.75
2022-12-11T10:47:36.827Z,1.65
2022-12-11T11:07:36.713Z,1.57
2022-12-11T11:27:36.717Z,1.48
2022-12-11T11:47:36.722Z,1.57
2022-12-11T12:07:36.689Z,1.65
2022-12-11T12:27:36.695Z,1.67
2022-12-11T12:47:36.687Z,1.67
2022-12-11T13:07:36.676Z,1.74
2022-12-11T13:27:36.868Z,1.82
2022-12-11T13:47:36.674Z,1.98
2022-12-11T14:07:36.757Z,2.16
2022-12-11T14:27:36.665Z,2.33
2022-12-11T14:47:36.655Z,2.41
2022-12-11T15:07:36.650Z,2.14
2022-12-11T15:27:36.653Z,2.49
2022-12-11T15:47:36.635Z,2.15
2022-12-11T16:07:36.621Z,2.36
2022-12-11T16:27:36.735Z,2.41
2022-12-11T16:47:36.618Z,2.59
2022-12-11T17:07:36.610Z,2.78
2022-12-11T17:27:36.622Z,2.90
2022-12-11T17:47:36.590Z,3.02
2022-12-11T18:07:36.593Z,2.94
2022-12-11T18:27:36.664Z,2.96
2022-12-11T18:47:36.573Z,3.08
2022-12-11T19:07:36.584Z,3.10
2022-12-11T19:27:36.564Z,3.11
2022-12-11T19:47:36.550Z,3.18
2022-12-11T20:07:36.525Z,3.13
2022-12-11T20:27:36.539Z,3.11
2022-12-11T20:47:36.578Z,2.85
2022-12-11T21:07:36.583Z,2.69
2022-12-11T21:27:36.503Z,2.75
2022-12-11T21:47:36.502Z,2.81
2022-12-11T22:07:36.556Z,2.80
2022-12-11T22:27:36.482Z,2.88
2022-12-11T22:47:36.467Z,2.81
2022-12-11T23:07:36.526Z,2.90
2022-12-11T23:27:36.456Z,2.90
2022-12-11T23:47:36.461Z,2.90
